createdAt,value
2019-06-10T16:01:27.139Z,24.90
2019-06-10T16:03:56.964Z,24.80
2019-06-10T16:06:27.166Z,24.80
2019-06-10T16:08:58.551Z,24.80
2019-06-10T16:11:28.980Z,24.80
2019-06-10T16:13:59.134Z,24.70
2019-06-10T16:16:29.351Z,24.70
2019-06-10T16:18:59.502Z,24.70
2019-06-10T16:21:29.675Z,24.70
2019-06-10T16:24:02.571Z,24.60
2019-06-10T16:26:31.841Z,24.60
2019-06-10T16:29:02.759Z,24.60
2019-06-10T16:31:32.980Z,24.50
2019-06-10T16:34:04.425Z,24.50
2019-06-10T16:36:34.648Z,24.50
2019-06-10T16:39:06.862Z,24.50
2019-06-10T16:41:38.019Z,24.50
2019-06-10T16:44:08.195Z,24.50
2019-06-10T16:46:38.380Z,24.50
2019-06-10T16:49:08.475Z,24.50
2019-06-10T16:51:38.662Z,24.50
2019-06-10T16:54:08.772Z,24.40
2019-06-10T16:56:38.912Z,24.30
2019-06-10T16:59:09.005Z,24.30
2019-06-10T17:01:39.196Z,24.30
2019-06-10T17:04:09.374Z,24.20
2019-06-10T17:06:42.013Z,24.10
2019-06-10T17:09:13.467Z,24.00
2019-06-10T17:11:43.865Z,23.80
2019-06-10T17:14:14.021Z,23.70
2019-06-10T17:16:44.356Z,23.50
2019-06-10T17:19:14.492Z,23.20
2019-06-10T17:21:44.712Z,23.00
2019-06-10T17:24:14.902Z,22.70
2019-06-10T17:26:45.114Z,22.60
2019-06-10T17:29:15.227Z,22.40
2019-06-10T17:31:45.506Z,22.30
2019-06-10T17:34:15.649Z,22.20
2019-06-10T17:36:45.899Z,22.20
2019-06-10T17:39:16.135Z,22.10
2019-06-10T17:41:46.252Z,22.00
2019-06-10T17:44:16.425Z,22.00
2019-06-10T17:46:46.693Z,21.90
2019-06-10T17:49:16.838Z,21.90
2019-06-10T17:51:47.077Z,21.80
2019-06-10T17:54:17.364Z,21.70
2019-06-10T17:56:47.602Z,21.70
2019-06-10T17:59:17.891Z,21.70
2019-06-10T18:01:52.266Z,21.60
2019-06-10T18:04:22.625Z,21.50
2019-06-10T18:06:53.450Z,21.50
2019-06-10T18:09:24.866Z,21.50
2019-06-10T18:11:55.639Z,21.50
2019-06-10T18:14:25.963Z,21.40
2019-06-10T18:16:56.247Z,21.40
2019-06-10T18:19:26.441Z,21.40
2019-06-10T18:21:56.631Z,21.40
2019-06-10T18:24:28.805Z,21.30
2019-06-10T18:27:02.140Z,21.30
2019-06-10T18:29:33.678Z,21.30
2019-06-10T18:32:03.527Z,21.30
2019-06-10T18:34:37.986Z,21.30
2019-06-10T18:37:08.374Z,21.30
2019-06-10T18:39:39.824Z,21.30
2019-06-10T18:42:12.512Z,21.20
2019-06-10T18:44:41.919Z,21.20
2019-06-10T18:47:13.405Z,21.10
2019-06-10T18:49:43.715Z,21.00
2019-06-10T18:52:13.802Z,21.00
2019-06-10T18:54:44.000Z,20.90
2019-06-10T18:57:14.176Z,20.90
2019-06-10T18:59:44.345Z,20.90
2019-06-10T19:02:14.439Z,20.90
2019-06-10T19:04:44.823Z,20.90
2019-06-10T19:07:14.982Z,20.90
2019-06-10T19:09:48.016Z,20.90
2019-06-10T19:12:17.147Z,20.90
2019-06-10T19:14:47.350Z,20.90
2019-06-10T19:17:17.689Z,20.80
2019-06-10T19:19:47.876Z,20.80
2019-06-10T19:22:18.068Z,20.80
2019-06-10T19:24:48.219Z,20.80
2019-06-10T19:27:19.500Z,20.70
2019-06-10T19:29:51.319Z,20.70
2019-06-10T19:32:21.435Z,20.70
2019-06-10T19:34:52.415Z,20.70
2019-06-10T19:37:22.770Z,20.70
2019-06-10T19:39:54.140Z,20.70
2019-06-10T19:42:24.440Z,20.60
2019-06-10T19:44:54.584Z,20.60
2019-06-10T19:47:24.735Z,20.60
2019-06-10T19:49:56.506Z,20.60
2019-06-10T19:52:26.751Z,20.60
2019-06-10T19:54:57.028Z,20.60
2019-06-10T19:57:27.187Z,20.60
2019-06-10T20:00:08.466Z,20.60
2019-06-10T20:02:32.602Z,20.50
2019-06-10T20:05:02.295Z,20.50
2019-06-10T20:07:33.837Z,20.40
2019-06-10T20:10:04.466Z,20.40
2019-06-10T20:12:34.661Z,20.40
2019-06-10T20:15:05.512Z,20.30
2019-06-10T20:17:35.713Z,20.30
2019-06-10T20:20:07.137Z,20.20
2019-06-10T20:22:37.317Z,20.20
2019-06-10T20:25:07.519Z,20.20
2019-06-10T20:27:37.750Z,20.20
2019-06-10T20:30:23.511Z,20.20
2019-06-10T20:32:41.551Z,20.10
2019-06-10T20:35:12.869Z,20.10
2019-06-10T20:37:44.645Z,20.10
2019-06-10T20:40:15.464Z,20.00
2019-06-10T20:42:46.600Z,20.00
2019-06-10T20:45:16.814Z,20.00
2019-06-10T20:47:47.929Z,20.00
2019-06-10T20:50:18.926Z,20.00
2019-06-10T20:52:49.145Z,20.00
2019-06-10T20:55:19.398Z,20.00
2019-06-10T20:57:58.940Z,20.00
2019-06-10T21:00:34.322Z,19.90
2019-06-10T21:03:04.878Z,19.90
2019-06-10T21:05:35.165Z,19.80
2019-06-10T21:08:05.795Z,19.80
2019-06-10T21:10:37.025Z,19.80
2019-06-10T21:13:07.641Z,19.80
2019-06-10T21:15:37.962Z,19.70
2019-06-10T21:18:08.173Z,19.70
2019-06-10T21:20:38.390Z,19.70
2019-06-10T21:23:08.619Z,19.70
2019-06-10T21:25:38.821Z,19.60
2019-06-10T21:28:08.951Z,19.60
2019-06-10T21:30:44.750Z,19.60
2019-06-10T21:33:12.925Z,19.60
2019-06-10T21:35:46.589Z,19.60
2019-06-10T21:38:14.970Z,19.50
2019-06-10T21:40:46.626Z,19.50
2019-06-10T21:43:17.148Z,19.50
2019-06-10T21:45:53.311Z,19.40
2019-06-10T21:48:19.108Z,19.40
2019-06-10T21:50:54.219Z,19.30
2019-06-10T21:53:22.662Z,19.30
2019-06-10T21:55:53.969Z,19.30
2019-06-10T21:58:24.745Z,19.30
2019-06-10T22:01:08.313Z,19.30
2019-06-10T22:03:27.032Z,19.30
2019-06-10T22:05:57.211Z,19.30
2019-06-10T22:08:27.340Z,19.20
2019-06-10T22:10:57.489Z,19.20
2019-06-10T22:13:27.589Z,19.20
2019-06-10T22:15:57.813Z,19.20
2019-06-10T22:18:28.343Z,19.20
2019-06-10T22:20:58.555Z,19.20
2019-06-10T22:23:28.717Z,19.20
2019-06-10T22:25:58.848Z,19.20
2019-06-10T22:28:29.980Z,19.20
2019-06-10T22:31:18.077Z,19.10
2019-06-10T22:33:32.047Z,19.20
2019-06-10T22:36:02.479Z,19.20
2019-06-10T22:38:32.963Z,19.10
2019-06-10T22:41:03.460Z,19.10
2019-06-10T22:43:34.764Z,19.10
2019-06-10T22:46:05.047Z,19.10
2019-06-10T22:48:35.226Z,19.00
2019-06-10T22:51:05.506Z,19.00
2019-06-10T22:53:35.690Z,19.00
2019-06-10T22:56:05.823Z,18.90
2019-06-10T22:58:35.916Z,18.90
2019-06-10T23:01:08.963Z,18.80
2019-06-10T23:03:39.360Z,18.80
2019-06-10T23:06:09.563Z,18.70
2019-06-10T23:08:39.660Z,18.70
2019-06-10T23:11:09.920Z,18.60
2019-06-10T23:13:42.309Z,18.60
2019-06-10T23:16:12.985Z,18.60
2019-06-10T23:18:43.364Z,18.50
2019-06-10T23:21:13.541Z,18.50
2019-06-10T23:23:43.725Z,18.50
2019-06-10T23:26:13.949Z,18.50
2019-06-10T23:28:44.169Z,18.50
2019-06-10T23:31:14.415Z,18.50
2019-06-10T23:33:44.515Z,18.40
2019-06-10T23:36:14.850Z,18.40
2019-06-10T23:38:44.959Z,18.30
2019-06-10T23:41:15.181Z,18.30
2019-06-10T23:43:45.353Z,18.30
2019-06-10T23:46:15.694Z,18.20
2019-06-10T23:48:45.857Z,18.20
2019-06-10T23:51:16.397Z,18.10
2019-06-10T23:53:46.566Z,18.10
2019-06-10T23:56:16.763Z,18.10
2019-06-10T23:58:46.938Z,18.00
